Time;durP1;ratioP1;P1;durP2;ratioP2;P2;SDS_P1;SDS_P2;PMS_P1;PMS_P2;Temp;Humidity;BMP_temperature;BMP_pressure;BME280_temperature;BME280_humidity;BME280_pressure;Samples;Min_cycle;Max_cycle;Signal;HPM_P1;HPM_P2
2022/01/11 00:02:31;;;;;;;20.60;12.90;;;;;;;1.16;59.69;100258.30;221580;1274;139257;-58
2022/01/11 00:07:35;;;;;;;19.20;12.40;;;;;;;1.15;59.62;100263.34;221295;1276;138803;-58
2022/01/11 00:12:39;;;;;;;20.80;12.80;;;;;;;1.17;59.63;100263.36;221340;1275;139184;-60
2022/01/11 00:17:42;;;;;;;20.40;13.00;;;;;;;1.17;59.58;100273.31;221406;1275;140649;-65
2022/01/11 00:28:15;;;;;;;20.00;13.00;;;;;;;1.17;59.74;100272.44;220923;1275;139500;-59
2022/01/11 00:33:38;;;;;;;21.20;13.20;;;;;;;1.16;59.64;100277.52;221225;1276;139136;-58
2022/01/11 00:38:41;;;;;;;23.00;13.10;;;;;;;1.18;59.71;100281.35;221312;1274;140412;-59
2022/01/11 00:43:44;;;;;;;21.40;12.60;;;;;;;1.19;59.52;100283.45;221579;1274;139251;-60
2022/01/11 00:48:47;;;;;;;20.70;12.60;;;;;;;1.21;59.60;100287.98;221555;1276;139708;-59
2022/01/11 00:53:50;;;;;;;22.10;12.20;;;;;;;1.21;59.62;100285.70;220770;1274;139313;-57
2022/01/11 00:58:54;;;;;;;20.50;13.10;;;;;;;1.22;59.50;100289.38;221372;1274;141293;-58
2022/01/11 01:03:56;;;;;;;18.40;11.80;;;;;;;1.22;59.65;100286.75;221495;1274;139033;-58
2022/01/11 01:09:00;;;;;;;21.50;12.50;;;;;;;1.22;59.70;100291.11;221473;1276;139405;-57
2022/01/11 01:14:05;;;;;;;22.80;12.30;;;;;;;1.24;59.65;100285.52;221496;1274;139109;-57
2022/01/11 01:19:08;;;;;;;23.40;12.40;;;;;;;1.25;59.45;100290.58;221163;1274;138999;-58
2022/01/11 01:24:11;;;;;;;19.00;12.40;;;;;;;1.25;59.48;100289.70;221426;1276;139231;-59
2022/01/11 01:29:15;;;;;;;19.60;12.30;;;;;;;1.23;59.44;100294.61;221410;1275;139361;-57
2022/01/11 01:34:18;;;;;;;20.40;11.70;;;;;;;1.22;59.41;100302.30;221382;1274;139102;-59
2022/01/11 01:39:22;;;;;;;16.60;10.80;;;;;;;1.24;59.52;100300.20;221265;1274;138933;-59
2022/01/11 01:44:26;;;;;;;20.10;11.80;;;;;;;1.23;59.51;100305.63;221626;1274;139873;-60
2022/01/11 01:49:30;;;;;;;19.60;12.00;;;;;;;1.22;59.51;100309.14;221418;1276;138740;-60
2022/01/11 01:54:34;;;;;;;19.10;11.80;;;;;;;1.22;59.67;100309.64;221414;1275;139572;-57
2022/01/11 01:59:37;;;;;;;18.80;11.60;;;;;;;1.24;59.68;100317.16;221290;1274;139138;-58
2022/01/11 02:04:41;;;;;;;20.20;11.50;;;;;;;1.24;59.66;100312.79;221214;1274;139560;-55
2022/01/11 02:09:44;;;;;;;23.50;12.20;;;;;;;1.23;59.59;100315.59;221304;1274;140490;-58
2022/01/11 02:14:47;;;;;;;20.80;12.70;;;;;;;1.23;59.73;100318.39;221385;1274;140290;-58
2022/01/11 02:19:50;;;;;;;18.40;11.50;;;;;;;1.23;59.70;100318.05;221449;1276;139508;-58
2022/01/11 02:24:54;;;;;;;18.70;11.50;;;;;;;1.23;59.62;100322.59;221355;1274;140254;-59
2022/01/11 02:29:59;;;;;;;19.80;11.80;;;;;;;1.23;59.58;100326.43;221319;1274;139002;-56
2022/01/11 02:35:03;;;;;;;18.00;10.70;;;;;;;1.22;59.59;100328.19;221401;1276;139721;-57
2022/01/11 02:40:07;;;;;;;19.20;11.30;;;;;;;1.23;59.69;100334.30;221548;1276;140430;-57
2022/01/11 02:45:13;;;;;;;17.30;10.90;;;;;;;1.22;59.52;100335.34;221339;1274;139772;-57
2022/01/11 02:50:18;;;;;;;17.40;11.30;;;;;;;1.22;59.63;100337.45;221006;1277;139631;-56
2022/01/11 02:55:24;;;;;;;16.70;10.60;;;;;;;1.20;59.45;100341.64;221342;1276;139600;-56
2022/01/11 03:00:27;;;;;;;18.90;11.10;;;;;;;1.17;59.58;100342.70;221183;1277;138931;-57
2022/01/11 03:05:30;;;;;;;18.70;11.40;;;;;;;1.16;59.57;100347.61;221285;1276;139774;-56
2022/01/11 03:10:36;;;;;;;18.10;11.20;;;;;;;1.15;59.43;100357.73;221215;1275;139369;-58
2022/01/11 03:15:40;;;;;;;16.00;9.90;;;;;;;1.12;59.35;100364.75;221191;1274;139080;-56
2022/01/11 03:20:48;;;;;;;17.40;11.00;;;;;;;1.09;59.19;100370.16;221446;1275;139372;-56
2022/01/11 03:25:52;;;;;;;15.00;9.90;;;;;;;1.06;58.83;100374.19;221449;1275;139569;-57
2022/01/11 03:30:56;;;;;;;19.00;10.80;;;;;;;1.02;58.66;100377.52;221033;1274;138382;-56
2022/01/11 03:35:59;;;;;;;16.80;10.10;;;;;;;0.98;58.48;100385.91;221261;1274;139751;-57
2022/01/11 03:41:03;;;;;;;19.80;11.10;;;;;;;0.95;58.59;100386.61;221518;1274;139731;-58
2022/01/11 03:46:06;;;;;;;14.40;9.50;;;;;;;0.93;58.48;100389.06;221317;1276;138954;-58
2022/01/11 03:51:11;;;;;;;18.40;10.60;;;;;;;0.91;58.41;100387.31;221273;1274;141717;-58
2022/01/11 03:56:36;;;;;;;17.60;10.80;;;;;;;0.89;58.36;100400.60;221426;1274;139231;-58
2022/01/11 04:01:45;;;;;;;17.20;10.60;;;;;;;0.85;58.18;100405.84;221432;1274;140132;-58
2022/01/11 04:06:49;;;;;;;15.80;10.60;;;;;;;0.83;58.05;100410.55;221208;1274;166566;-57
2022/01/11 04:11:53;;;;;;;19.90;10.60;;;;;;;0.80;58.12;100415.27;221340;1274;139978;-58
2022/01/11 04:16:56;;;;;;;24.40;14.90;;;;;;;0.87;58.62;100419.46;221388;1276;139096;-57
2022/01/11 04:21:59;;;;;;;387.90;262.60;;;;;;;1.00;58.42;100417.36;221490;1274;139246;-55
2022/01/11 04:27:04;;;;;;;27.70;15.70;;;;;;;1.04;58.38;100418.92;221393;1276;139260;-58
2022/01/11 04:32:08;;;;;;;14.60;10.20;;;;;;;1.03;58.12;100420.85;221403;1275;139933;-59
2022/01/11 04:37:11;;;;;;;13.70;8.90;;;;;;;0.94;57.58;100428.37;221407;1275;139675;-58
2022/01/11 04:42:15;;;;;;;15.20;9.80;;;;;;;0.87;57.61;100433.79;221288;1276;139095;-57
2022/01/11 04:47:18;;;;;;;162.60;93.90;;;;;;;0.81;57.53;100440.42;221176;1276;140519;-58
2022/01/11 04:52:22;;;;;;;24.30;13.90;;;;;;;0.86;58.06;100446.89;220884;1274;140053;-57
2022/01/11 04:57:25;;;;;;;18.90;11.00;;;;;;;0.87;57.56;100451.79;221391;1274;139673;-59
2022/01/11 05:02:28;;;;;;;17.10;10.50;;;;;;;0.80;57.43;100454.75;221587;1274;138762;-59
2022/01/11 05:07:31;;;;;;;17.10;9.60;;;;;;;0.76;57.53;100452.31;221409;1274;139640;-59
2022/01/11 05:12:38;;;;;;;203.70;114.60;;;;;;;0.72;57.43;100450.38;221107;1275;138855;-59
2022/01/11 05:17:43;;;;;;;21.40;13.40;;;;;;;0.77;57.72;100456.15;221338;1274;139795;-60
2022/01/11 05:22:47;;;;;;;17.20;10.10;;;;;;;0.73;57.57;100460.69;221527;1274;140603;-59
2022/01/11 05:27:50;;;;;;;15.00;10.00;;;;;;;0.67;57.56;100466.27;221383;1274;139329;-59
2022/01/11 05:32:54;;;;;;;14.30;9.60;;;;;;;0.66;57.58;100480.77;221281;1273;138856;-59
2022/01/11 05:37:58;;;;;;;17.10;10.60;;;;;;;0.65;57.56;100484.95;221466;1274;140188;-59
2022/01/11 05:43:02;;;;;;;17.30;10.30;;;;;;;0.64;57.60;100491.92;221533;1274;140131;-60
2022/01/11 05:48:06;;;;;;;15.30;9.80;;;;;;;0.61;57.62;100490.54;221235;1276;139290;-59
2022/01/11 05:53:10;;;;;;;16.90;10.40;;;;;;;0.58;57.67;100493.31;221296;1274;139607;-61
2022/01/11 05:58:13;;;;;;;14.90;9.90;;;;;;;0.58;57.90;100502.92;221301;1275;139343;-59
2022/01/11 06:03:16;;;;;;;14.70;10.10;;;;;;;0.59;57.92;100510.79;221477;1276;139122;-60
2022/01/11 06:08:23;;;;;;;17.50;10.50;;;;;;;0.58;57.89;100514.29;221421;1275;139389;-59
2022/01/11 06:13:26;;;;;;;16.90;10.50;;;;;;;0.55;57.81;100528.23;221388;1275;139502;-58
2022/01/11 06:18:30;;;;;;;16.30;9.80;;;;;;;0.55;57.98;100535.58;221345;1276;139299;-59
2022/01/11 06:23:51;;;;;;;13.90;9.30;;;;;;;0.56;58.20;100545.53;221440;1276;139192;-60
2022/01/11 06:28:56;;;;;;;14.30;9.50;;;;;;;0.58;58.11;100550.95;221386;1274;139271;-60
2022/01/11 06:33:59;;;;;;;17.90;10.10;;;;;;;0.59;58.19;100554.63;221271;1274;139142;-57
2022/01/11 06:39:04;;;;;;;18.70;10.40;;;;;;;0.60;58.14;100562.65;221481;1274;139001;-58
2022/01/11 06:44:10;;;;;;;16.40;10.00;;;;;;;0.59;58.22;100562.30;221576;1276;140131;-57
2022/01/11 06:49:14;;;;;;;15.40;9.50;;;;;;;0.60;58.24;100570.69;221062;1275;139024;-58
2022/01/11 06:54:18;;;;;;;16.90;9.80;;;;;;;0.61;58.35;100575.05;221337;1274;139097;-60
2022/01/11 06:59:22;;;;;;;17.90;10.00;;;;;;;0.60;58.31;100581.69;221308;1274;140951;-58
2022/01/11 07:04:26;;;;;;;19.00;10.70;;;;;;;0.60;58.52;100591.30;221485;1276;139362;-59
2022/01/11 07:09:31;;;;;;;17.40;10.10;;;;;;;0.61;58.44;100597.76;221387;1275;138677;-60
2022/01/11 07:14:35;;;;;;;18.90;10.40;;;;;;;0.67;58.55;100608.26;221382;1274;140064;-60
2022/01/11 07:19:38;;;;;;;16.80;9.90;;;;;;;0.71;58.57;100618.92;221379;1274;139046;-61
2022/01/11 07:24:45;;;;;;;16.90;10.00;;;;;;;0.72;58.58;100627.83;221454;1274;139923;-61
2022/01/11 07:29:51;;;;;;;18.20;10.30;;;;;;;0.73;58.59;100629.94;221436;1274;138792;-61
2022/01/11 07:34:54;;;;;;;18.10;11.20;;;;;;;0.71;58.54;100630.27;221160;1274;139534;-59
2022/01/11 07:39:58;;;;;;;20.30;11.50;;;;;;;0.74;58.59;100633.61;221260;1276;140229;-60
2022/01/11 07:45:01;;;;;;;20.70;11.60;;;;;;;0.78;58.81;100637.11;221459;1274;140153;-61
2022/01/11 07:50:06;;;;;;;21.00;11.60;;;;;;;0.79;58.56;100634.67;221568;1272;139724;-59
2022/01/11 07:55:09;;;;;;;20.50;12.30;;;;;;;0.80;58.76;100635.73;221317;1275;138811;-59
2022/01/11 08:00:13;;;;;;;23.10;12.40;;;;;;;0.80;58.63;100640.96;221355;1275;139254;-63
2022/01/11 08:05:18;;;;;;;26.80;14.20;;;;;;;0.82;58.73;100642.38;221467;1275;141641;-60
2022/01/11 08:10:23;;;;;;;25.90;14.80;;;;;;;0.83;58.72;100645.70;221435;1273;139941;-61
2022/01/11 08:15:27;;;;;;;26.10;15.60;;;;;;;0.81;58.69;100651.96;221330;1275;139530;-61
2022/01/11 08:20:30;;;;;;;28.70;15.90;;;;;;;0.79;58.84;100650.23;221451;1275;138705;-61
2022/01/11 08:25:34;;;;;;;34.00;17.80;;;;;;;0.81;58.78;100654.43;221486;1276;139733;-59
2022/01/11 08:30:38;;;;;;;31.00;17.20;;;;;;;0.79;58.83;100655.98;221395;1275;141741;-59
2022/01/11 08:35:43;;;;;;;33.30;17.60;;;;;;;0.77;58.77;100661.04;221297;1275;139362;-60
2022/01/11 08:40:48;;;;;;;38.50;19.30;;;;;;;0.73;58.92;100663.29;221283;1275;139374;-61
2022/01/11 08:45:51;;;;;;;38.60;20.50;;;;;;;0.70;59.01;100669.39;221426;1276;139238;-60
2022/01/11 08:50:56;;;;;;;37.00;20.20;;;;;;;0.66;58.91;100670.43;221372;1274;139325;-60
2022/01/11 08:56:02;;;;;;;38.20;20.70;;;;;;;0.62;58.95;100672.86;221531;1275;139091;-59
2022/01/11 09:01:07;;;;;;;42.70;22.00;;;;;;;0.55;58.78;100673.52;221555;1274;139656;-60
2022/01/11 09:06:13;;;;;;;42.80;22.60;;;;;;;0.53;58.86;100673.16;221533;1277;139683;-59
2022/01/11 09:11:17;;;;;;;38.40;21.50;;;;;;;0.50;58.91;100673.84;221245;1276;140012;-59
2022/01/11 09:16:23;;;;;;;36.90;20.70;;;;;;;0.51;59.05;100674.88;221297;1275;138641;-59
2022/01/11 09:21:27;;;;;;;41.80;21.70;;;;;;;0.51;59.17;100680.13;221310;1276;141624;-58
2022/01/11 09:26:31;;;;;;;38.60;22.20;;;;;;;0.51;59.24;100677.17;221593;1277;139911;-58
2022/01/11 09:31:34;;;;;;;37.40;21.60;;;;;;;0.50;59.30;100673.84;221183;1276;139766;-61
2022/01/11 09:36:40;;;;;;;48.80;22.90;;;;;;;0.52;59.32;100671.76;221235;1275;139698;-60
2022/01/11 09:41:44;;;;;;;44.20;23.60;;;;;;;0.56;59.34;100677.37;221217;1276;139746;-60
2022/01/11 09:46:48;;;;;;;42.10;22.60;;;;;;;0.64;59.44;100670.41;221359;1274;139680;-59
2022/01/11 09:51:52;;;;;;;39.00;22.40;;;;;;;0.67;59.44;100670.26;221309;1275;140122;-59
2022/01/11 09:56:55;;;;;;;442.00;257.40;;;;;;;0.76;59.73;100671.52;221160;1275;139521;-59
2022/01/11 10:02:00;;;;;;;57.50;30.00;;;;;;;0.99;60.19;100673.17;221428;1275;139388;-59
2022/01/11 10:07:29;;;;;;;40.30;22.00;;;;;;;1.08;59.64;100676.71;221462;1275;141016;-59
2022/01/11 10:13:03;;;;;;;41.30;23.20;;;;;;;1.14;59.58;100676.36;221248;1274;139961;-61
2022/01/11 10:18:07;;;;;;;45.30;24.30;;;;;;;1.15;59.28;100674.61;221219;1275;142660;-59
2022/01/11 10:23:13;;;;;;;40.90;21.80;;;;;;;1.15;59.43;100675.48;221285;1275;138902;-58
2022/01/11 10:28:34;;;;;;;40.70;22.20;;;;;;;1.16;59.25;100675.51;221389;1274;139412;-60
2022/01/11 10:33:37;;;;;;;53.60;27.40;;;;;;;1.27;59.62;100683.04;220705;1277;139226;-58
2022/01/11 10:38:41;;;;;;;40.00;22.90;;;;;;;1.40;59.56;100685.69;221185;1276;233968;-57
2022/01/11 10:43:47;;;;;;;36.30;20.10;;;;;;;1.45;59.25;100682.39;221446;1274;139645;-59
2022/01/11 10:48:57;;;;;;;33.80;18.90;;;;;;;1.51;59.06;100679.94;221363;1274;138894;-60
2022/01/11 10:54:01;;;;;;;36.50;21.00;;;;;;;1.50;58.78;100682.21;221270;1276;140002;-59
2022/01/11 10:59:08;;;;;;;33.00;19.30;;;;;;;1.54;58.90;100680.64;221202;1276;139878;-59
2022/01/11 11:04:32;;;;;;;32.30;19.20;;;;;;;1.61;58.92;100679.08;221201;1276;139425;-59
2022/01/11 11:09:50;;;;;;;34.40;18.80;;;;;;;1.70;58.90;100674.70;221368;1276;140236;-59
2022/01/11 11:14:56;;;;;;;25.90;16.60;;;;;;;1.72;58.62;100675.58;221255;1275;138846;-59
2022/01/11 11:20:10;;;;;;;23.30;14.60;;;;;;;1.71;58.33;100670.69;221327;1275;139522;-59
2022/01/11 11:25:13;;;;;;;29.60;17.10;;;;;;;1.75;58.33;100668.23;221308;1276;139702;-60
2022/01/11 11:30:17;;;;;;;32.60;18.40;;;;;;;1.86;58.45;100668.76;221434;1274;139392;-58
2022/01/11 11:35:21;;;;;;;35.60;19.80;;;;;;;1.90;58.18;100673.64;221466;1276;142443;-60
2022/01/11 11:40:27;;;;;;;30.10;18.30;;;;;;;1.92;58.29;100674.52;221316;1274;140073;-60
2022/01/11 11:45:31;;;;;;;;;;;;;;;1.93;58.17;100675.75;221388;1274;139251;-59
2022/01/11 11:50:55;;;;;;;31.50;18.20;;;;;;;1.84;57.83;100670.86;221584;1275;125678;-59
2022/01/11 11:56:18;;;;;;;34.30;19.50;;;;;;;1.74;57.83;100675.23;221440;1275;139010;-59
2022/01/11 12:01:44;;;;;;;97.60;57.10;;;;;;;1.64;57.77;100678.90;221363;1274;140078;-59
2022/01/11 12:06:48;;;;;;;42.40;21.80;;;;;;;1.67;58.41;100679.95;221313;1276;139204;-58
2022/01/11 12:11:51;;;;;;;29.20;15.90;;;;;;;1.69;57.84;100680.30;221239;1274;140246;-57
2022/01/11 12:16:56;;;;;;;27.30;15.40;;;;;;;1.64;57.72;100683.80;221385;1275;139519;-58
2022/01/11 12:22:07;;;;;;;23.90;14.80;;;;;;;1.57;57.74;100680.12;221390;1277;139113;-58
2022/01/11 12:27:15;;;;;;;25.70;15.20;;;;;;;1.55;57.76;100675.21;221414;1274;139320;-58
2022/01/11 12:32:19;;;;;;;27.30;15.30;;;;;;;1.59;58.03;100678.38;221286;1274;139313;-58
2022/01/11 12:37:40;;;;;;;23.10;14.10;;;;;;;1.69;57.90;100678.55;221325;1275;139580;-59
2022/01/11 12:42:52;;;;;;;27.00;13.70;;;;;;;1.74;57.66;100685.02;221423;1274;138998;-58
2022/01/11 12:47:55;;;;;;;21.40;13.50;;;;;;;1.77;57.66;100684.50;221245;1275;139775;-59
2022/01/11 12:52:59;;;;;;;24.20;13.90;;;;;;;1.84;57.76;100688.52;221332;1274;139157;-59
2022/01/11 12:58:03;;;;;;;24.80;14.00;;;;;;;1.91;57.77;100693.96;221428;1274;138886;-57
2022/01/11 13:03:06;;;;;;;24.90;14.90;;;;;;;1.95;57.55;100694.31;221501;1274;139476;-60
2022/01/11 13:08:09;;;;;;;28.10;16.50;;;;;;;1.94;57.60;100693.60;221538;1274;139321;-59
2022/01/11 13:13:16;;;;;;;29.50;17.60;;;;;;;1.94;57.73;100696.57;221229;1274;139904;-57
2022/01/11 13:18:21;;;;;;;27.90;16.30;;;;;;;1.95;57.58;100700.08;221429;1274;139123;-60
2022/01/11 13:23:35;;;;;;;22.90;14.90;;;;;;;1.95;57.38;100696.23;221434;1276;139032;-59
2022/01/11 13:28:42;;;;;;;26.40;14.70;;;;;;;1.94;57.27;100694.83;221255;1274;139269;-58
2022/01/11 13:33:52;;;;;;;24.10;14.30;;;;;;;1.90;57.17;100695.36;221401;1274;139290;-58
2022/01/11 13:38:59;;;;;;;27.00;17.10;;;;;;;1.85;57.13;100699.91;221492;1274;139814;-58
2022/01/11 13:44:08;;;;;;;32.00;17.40;;;;;;;1.81;57.29;100706.04;221570;1274;139292;-59
2022/01/11 13:49:26;;;;;;;34.80;19.30;;;;;;;1.79;57.26;100708.48;221410;1274;139603;-58
2022/01/11 13:54:36;;;;;;;34.90;18.40;;;;;;;1.76;57.33;100708.48;221354;1274;139152;-59
2022/01/11 13:59:40;;;;;;;34.30;18.50;;;;;;;1.75;57.46;100709.69;221394;1276;139052;-56
2022/01/11 14:04:58;;;;;;;32.30;18.60;;;;;;;1.72;57.45;100714.23;221454;1276;139812;-59
2022/01/11 14:10:04;;;;;;;31.30;18.70;;;;;;;1.69;57.42;100709.00;221505;1274;139721;-58
2022/01/11 14:15:08;;;;;;;29.00;17.50;;;;;;;1.65;57.37;100715.80;221370;1274;139316;-60
2022/01/11 14:20:12;;;;;;;30.70;18.20;;;;;;;1.63;57.54;100720.02;221566;1274;140090;-59
2022/01/11 14:25:24;;;;;;;31.40;18.30;;;;;;;1.60;57.57;100716.86;221454;1275;138447;-59
2022/01/11 14:30:39;;;;;;;30.90;19.40;;;;;;;1.62;57.55;100715.80;221369;1274;138884;-58
2022/01/11 14:35:43;;;;;;;36.50;20.10;;;;;;;1.58;57.46;100719.65;221395;1274;139509;-57
2022/01/11 14:40:46;;;;;;;42.50;23.80;;;;;;;1.52;57.59;100722.27;221148;1276;139018;-59
2022/01/11 14:45:53;;;;;;;46.40;25.20;;;;;;;1.49;57.74;100726.29;221339;1276;139956;-59
2022/01/11 14:50:57;;;;;;;45.50;25.90;;;;;;;1.43;57.82;100723.64;221452;1274;139610;-58
2022/01/11 14:56:02;;;;;;;43.30;25.80;;;;;;;1.37;57.88;100722.06;221353;1274;138808;-58
2022/01/11 15:01:12;;;;;;;47.10;27.80;;;;;;;1.30;57.90;100719.94;221368;1276;138596;-59
2022/01/11 15:06:20;;;;;;;49.80;27.60;;;;;;;1.24;58.02;100718.52;221354;1274;138913;-59
2022/01/11 15:11:43;;;;;;;74.90;40.20;;;;;;;1.19;58.17;100722.36;221234;1274;139499;-59
2022/01/11 15:16:47;;;;;;;50.50;28.90;;;;;;;1.23;58.34;100720.09;221335;1274;140103;-59
2022/01/11 15:21:51;;;;;;;43.00;26.90;;;;;;;1.15;58.15;100723.39;221394;1275;139122;-58
2022/01/11 15:26:54;;;;;;;47.90;26.60;;;;;;;1.03;58.19;100724.92;221477;1277;139315;-59
2022/01/11 15:31:59;;;;;;;45.60;27.10;;;;;;;0.91;58.21;100730.30;221317;1274;139645;-59
2022/01/11 15:37:03;;;;;;;46.40;27.20;;;;;;;0.82;58.36;100729.54;221262;1274;139366;-60
2022/01/11 15:42:06;;;;;;;51.50;28.00;;;;;;;0.74;58.41;100726.88;221392;1275;139489;-59
2022/01/11 15:47:10;;;;;;;51.40;28.30;;;;;;;0.67;58.66;100730.52;221314;1276;139160;-59
2022/01/11 15:52:13;;;;;;;57.30;33.10;;;;;;;0.63;58.84;100732.94;221273;1274;139348;-58
2022/01/11 15:57:16;;;;;;;61.50;34.20;;;;;;;0.61;58.98;100734.15;221291;1272;139600;-58
2022/01/11 16:02:21;;;;;;;67.70;34.70;;;;;;;0.61;59.12;100734.15;221177;1275;138451;-58
2022/01/11 16:07:25;;;;;;;79.30;40.30;;;;;;;0.64;59.23;100739.40;221128;1274;306368;-59
2022/01/11 16:12:28;;;;;;;68.20;36.90;;;;;;;0.67;59.35;100743.44;221081;1276;139348;-59
2022/01/11 16:17:31;;;;;;;76.10;41.00;;;;;;;0.61;59.36;100753.17;221310;1274;138825;-59
2022/01/11 16:22:34;;;;;;;81.40;42.20;;;;;;;0.54;59.45;100761.86;221362;1276;139396;-59
2022/01/11 16:27:38;;;;;;;77.20;41.00;;;;;;;0.46;59.62;100761.98;221476;1274;138966;-59
2022/01/11 16:32:41;;;;;;;78.80;42.90;;;;;;;0.39;59.76;100765.80;221374;1274;139172;-59
2022/01/11 16:37:44;;;;;;;86.80;42.80;;;;;;;0.31;59.78;100769.55;221191;1276;139255;-59
2022/01/11 16:42:48;;;;;;;84.80;43.20;;;;;;;0.20;59.74;100772.45;221402;1275;139749;-58
2022/01/11 16:47:51;;;;;;;88.00;44.00;;;;;;;0.11;59.88;100777.96;221526;1274;139156;-58
2022/01/11 16:52:55;;;;;;;88.10;44.90;;;;;;;-0.00;59.84;100782.92;221272;1274;139176;-57
2022/01/11 16:57:59;;;;;;;95.60;46.60;;;;;;;-0.13;59.83;100791.00;221290;1274;139169;-59
2022/01/11 17:03:03;;;;;;;94.40;46.60;;;;;;;-0.24;60.01;100799.80;221562;1274;139152;-58
2022/01/11 17:08:06;;;;;;;96.80;47.50;;;;;;;-0.35;60.19;100802.28;221370;1275;139391;-57
2022/01/11 17:13:09;;;;;;;94.50;45.90;;;;;;;-0.45;60.18;100811.07;221390;1274;139247;-58
2022/01/11 17:18:13;;;;;;;95.40;47.00;;;;;;;-0.54;60.39;100816.52;221413;1274;139085;-57
2022/01/11 17:23:16;;;;;;;87.40;44.50;;;;;;;-0.60;60.57;100818.04;221420;1274;139662;-58
2022/01/11 17:28:20;;;;;;;93.90;44.30;;;;;;;-0.63;60.73;100826.20;221459;1276;139422;-59
2022/01/11 17:33:23;;;;;;;113.80;55.10;;;;;;;-0.67;60.76;100830.15;221240;1274;139613;-58
2022/01/11 17:38:27;;;;;;;105.10;48.70;;;;;;;-0.65;61.18;100828.61;221117;1274;139715;-59
2022/01/11 17:43:30;;;;;;;93.90;44.40;;;;;;;-0.68;61.13;100834.66;221330;1276;139524;-59
2022/01/11 17:48:33;;;;;;;94.70;45.60;;;;;;;-0.74;61.13;100829.20;221040;1276;139733;-59
2022/01/11 17:53:36;;;;;;;272.50;135.00;;;;;;;-0.74;61.37;100837.05;221295;1274;140327;-59
2022/01/11 17:58:39;;;;;;;86.70;41.00;;;;;;;-0.33;62.75;100840.32;221309;1274;233553;-57
2022/01/11 18:03:42;;;;;;;87.50;41.90;;;;;;;-0.11;61.77;100843.19;221329;1275;140928;-57
2022/01/11 18:08:45;;;;;;;85.60;42.10;;;;;;;-0.16;61.46;100846.43;221594;1276;139464;-58
2022/01/11 18:13:51;;;;;;;90.20;43.60;;;;;;;-0.21;61.38;100852.31;221175;1274;139940;-59
2022/01/11 18:18:55;;;;;;;;;;;;;;;-0.31;61.20;100852.90;221335;1274;139588;-58
2022/01/11 18:23:58;;;;;;;80.70;39.20;;;;;;;-0.42;61.30;100857.65;221463;1275;126413;-59
2022/01/11 18:29:02;;;;;;;71.20;36.10;;;;;;;-0.47;61.37;100864.05;221533;1274;140383;-59
2022/01/11 18:34:05;;;;;;;77.00;37.00;;;;;;;-0.53;61.60;100868.50;221397;1274;140831;-58
2022/01/11 18:39:09;;;;;;;72.80;36.10;;;;;;;-0.58;61.65;100874.71;221278;1275;139184;-56
2022/01/11 18:44:12;;;;;;;74.80;36.10;;;;;;;-0.63;61.47;100882.48;221222;1274;140502;-59
2022/01/11 18:49:15;;;;;;;74.10;35.40;;;;;;;-0.66;61.73;100889.06;221367;1276;140674;-59
2022/01/11 18:54:18;;;;;;;436.00;269.80;;;;;;;-0.68;62.01;100890.80;221357;1275;139640;-60
2022/01/11 18:59:22;;;;;;;78.10;40.40;;;;;;;-0.43;62.59;100890.59;221364;1274;140379;-60
2022/01/11 19:04:25;;;;;;;71.80;36.00;;;;;;;-0.42;61.83;100893.75;221204;1274;140453;-59
2022/01/11 19:09:31;;;;;;;68.30;34.60;;;;;;;-0.52;61.62;100896.23;221282;1274;140109;-57
2022/01/11 19:14:36;;;;;;;62.40;31.00;;;;;;;-0.61;61.49;100901.53;221394;1276;140238;-60
2022/01/11 19:19:39;;;;;;;62.20;30.40;;;;;;;-0.69;61.42;100907.67;221409;1276;140457;-60
2022/01/11 19:24:43;;;;;;;62.40;30.90;;;;;;;-0.77;61.46;100911.92;221355;1276;139959;-60
2022/01/11 19:29:47;;;;;;;98.20;49.50;;;;;;;-0.82;61.41;100914.48;221306;1276;139135;-57
2022/01/11 19:34:51;;;;;;;81.90;41.00;;;;;;;-0.76;62.03;100914.74;221379;1275;138898;-60
2022/01/11 19:39:56;;;;;;;57.50;29.00;;;;;;;-0.54;62.12;100910.85;221465;1276;139153;-61
2022/01/11 19:45:03;;;;;;;60.30;30.10;;;;;;;-0.62;61.43;100908.30;221452;1275;139245;-59
2022/01/11 19:50:07;;;;;;;60.40;29.10;;;;;;;-0.75;61.34;100913.02;221325;1274;139849;-61
2022/01/11 19:55:10;;;;;;;60.70;30.00;;;;;;;-0.84;61.36;100914.10;221113;1277;139685;-60
2022/01/11 20:00:15;;;;;;;63.70;30.60;;;;;;;-0.92;61.29;100915.88;221493;1275;141494;-61
2022/01/11 20:05:19;;;;;;;58.70;29.80;;;;;;;-1.00;61.56;100909.15;221238;1275;139460;-60
2022/01/11 20:10:24;;;;;;;65.20;30.00;;;;;;;-1.05;61.62;100900.55;221414;1275;139342;-59
2022/01/11 20:15:27;;;;;;;64.90;31.80;;;;;;;-1.06;61.86;100897.73;221368;1275;139486;-61
2022/01/11 20:20:35;;;;;;;62.10;28.90;;;;;;;-1.03;61.98;100896.56;221612;1275;139245;-61
2022/01/11 20:31:01;;;;;;;60.50;28.90;;;;;;;-0.99;62.10;100898.88;221512;1274;139705;-62
2022/01/11 20:36:05;;;;;;;57.80;27.80;;;;;;;-0.99;62.21;100899.08;221431;1274;139814;-60
2022/01/11 20:41:10;;;;;;;60.10;28.30;;;;;;;-1.02;62.18;100892.58;221444;1272;139535;-61
2022/01/11 20:46:13;;;;;;;57.50;29.00;;;;;;;-0.99;62.21;100891.92;221497;1274;139916;-60
2022/01/11 20:51:27;;;;;;;55.70;27.40;;;;;;;-0.93;62.30;100887.84;221443;1274;139443;-60
2022/01/11 20:56:37;;;;;;;59.30;28.40;;;;;;;-0.85;62.37;100892.83;221523;1275;138935;-61
2022/01/11 21:01:43;;;;;;;51.50;26.30;;;;;;;-0.78;62.23;100889.11;221638;1274;139314;-60
2022/01/11 21:06:46;;;;;;;54.00;26.50;;;;;;;-0.73;62.12;100892.30;221501;1275;139159;-59
2022/01/11 21:11:50;;;;;;;49.90;25.10;;;;;;;-0.72;62.13;100889.52;221223;1275;139036;-59
2022/01/11 21:21:59;;;;;;;53.40;25.90;;;;;;;-0.71;62.09;100884.13;221463;1276;139382;-59
2022/01/11 21:27:06;;;;;;;54.60;27.10;;;;;;;-0.72;62.00;100879.23;221501;1276;139505;-62
2022/01/11 21:32:10;;;;;;;55.90;26.90;;;;;;;-0.74;62.09;100884.10;221477;1275;139170;-60
2022/01/11 21:37:15;;;;;;;56.70;26.20;;;;;;;-0.77;62.07;100886.84;221410;1275;139603;-61
2022/01/11 21:42:18;;;;;;;57.50;27.30;;;;;;;-0.81;61.99;100888.01;221543;1276;139764;-63
2022/01/11 21:47:21;;;;;;;53.40;25.30;;;;;;;-0.82;62.17;100891.27;221285;1276;139585;-62
2022/01/11 21:52:24;;;;;;;43.40;22.50;;;;;;;-0.83;62.27;100889.88;221334;1275;139500;-60
2022/01/11 21:57:27;;;;;;;42.40;20.50;;;;;;;-0.82;62.26;100891.11;221466;1274;139031;-58
2022/01/11 22:02:30;;;;;;;41.30;21.20;;;;;;;-0.81;62.11;100889.05;221694;1274;139391;-59
2022/01/11 22:07:33;;;;;;;41.50;21.60;;;;;;;-0.81;62.23;100885.75;221465;1275;139435;-59
2022/01/11 22:12:41;;;;;;;47.30;22.60;;;;;;;-0.79;62.22;100886.80;221424;1275;140069;-60
2022/01/11 22:17:44;;;;;;;43.80;22.40;;;;;;;-0.79;62.27;100892.55;221435;1274;139816;-60
2022/01/11 22:22:47;;;;;;;51.80;23.70;;;;;;;-0.81;62.12;100891.66;221536;1276;139123;-58
2022/01/11 22:27:51;;;;;;;43.30;21.70;;;;;;;-0.80;62.16;100895.86;221406;1276;139074;-60
2022/01/11 22:32:54;;;;;;;41.30;20.50;;;;;;;-0.80;62.11;100896.39;221390;1275;139393;-60
2022/01/11 22:37:57;;;;;;;42.10;20.70;;;;;;;-0.80;62.20;100901.78;221412;1275;139887;-60
2022/01/11 22:43:00;;;;;;;49.20;22.60;;;;;;;-0.80;62.15;100899.86;221517;1276;139327;-61
2022/01/11 22:48:04;;;;;;;43.60;22.40;;;;;;;-0.78;62.17;100895.02;221528;1274;139158;-59
2022/01/11 22:53:07;;;;;;;43.80;22.50;;;;;;;-0.77;62.20;100897.12;221331;1275;139463;-59
2022/01/11 22:58:10;;;;;;;43.60;22.00;;;;;;;-0.86;61.83;100891.41;221459;1275;139938;-60
2022/01/11 23:03:15;;;;;;;46.60;23.50;;;;;;;-0.95;61.74;100892.17;221636;1276;140002;-58